Time;durP1;ratioP1;P1;durP2;ratioP2;P2;SDS_P1;SDS_P2;PMS_P1;PMS_P2;Temp;Humidity;BMP_temperature;BMP_pressure;BME280_temperature;BME280_humidity;BME280_pressure;Samples;Min_cycle;Max_cycle;Signal;HPM_P1;HPM_P2
2021/04/29 00:01:36;;;;;;;19.43;14.23;;;;;11.60;99663.00;;;;10533716;28;20563;-72
2021/04/29 00:06:38;;;;;;;22.53;14.80;;;;;11.50;99677.00;;;;10515692;28;20244;-72
2021/04/29 00:11:39;;;;;;;22.67;16.77;;;;;11.40;99667.00;;;;10527927;28;20188;-72
2021/04/29 00:16:42;;;;;;;21.60;14.70;;;;;11.30;99669.00;;;;10509714;28;20193;-72
2021/04/29 00:21:44;;;;;;;27.07;19.57;;;;;11.20;99680.00;;;;10509039;28;20203;-72
2021/04/29 00:26:45;;;;;;;24.60;19.70;;;;;11.10;99657.00;;;;10509197;28;20239;-73
2021/04/29 00:31:46;;;;;;;27.93;20.53;;;;;11.00;99665.00;;;;10526572;28;20227;-72
2021/04/29 00:36:49;;;;;;;30.73;21.60;;;;;10.90;99671.00;;;;10526045;28;20185;-72
2021/04/29 00:41:50;;;;;;;29.20;21.50;;;;;10.80;99650.00;;;;10499336;28;20220;-72
2021/04/29 00:46:52;;;;;;;27.93;20.60;;;;;10.70;99655.00;;;;10499360;28;20217;-73
2021/04/29 00:51:54;;;;;;;33.17;22.43;;;;;10.60;99664.00;;;;10500820;28;20200;-72
2021/04/29 00:56:55;;;;;;;35.03;23.80;;;;;10.40;99650.00;;;;10531143;28;20193;-72
2021/04/29 01:02:02;;;;;;;29.10;22.47;;;;;10.30;99630.00;;;;10525901;28;20189;-70
2021/04/29 01:07:11;;;;;;;33.57;25.27;;;;;10.30;99639.00;;;;10506933;28;20221;-70
2021/04/29 01:12:28;;;;;;;32.03;23.27;;;;;10.20;99647.00;;;;10507200;28;20257;-71
2021/04/29 01:17:30;;;;;;;33.70;25.30;;;;;10.10;99652.00;;;;10506611;28;20536;-70
2021/04/29 01:22:37;;;;;;;36.33;23.93;;;;;10.00;99662.00;;;;10489843;28;20648;-70
2021/04/29 01:27:39;;;;;;;37.73;26.07;;;;;10.00;99658.00;;;;10505270;28;20189;-71
2021/04/29 01:32:41;;;;;;;33.77;24.43;;;;;9.90;99682.00;;;;10505969;28;20199;-70
2021/04/29 01:37:43;;;;;;;35.07;25.70;;;;;9.90;99692.00;;;;10522256;28;20634;-70
2021/04/29 01:42:44;;;;;;;33.80;23.60;;;;;9.80;99694.00;;;;10522805;28;20300;-70
2021/04/29 01:47:45;;;;;;;33.70;24.47;;;;;9.70;99699.00;;;;10521911;28;20228;-70
2021/04/29 01:52:47;;;;;;;33.20;25.27;;;;;9.50;99706.00;;;;10505795;28;20245;-71
2021/04/29 01:57:49;;;;;;;28.80;22.43;;;;;9.40;99701.00;;;;10522656;28;20197;-71
2021/04/29 02:02:50;;;;;;;39.87;23.63;;;;;9.30;99720.00;;;;10505030;28;20224;-70
2021/04/29 02:07:52;;;;;;;31.40;23.43;;;;;9.10;99728.00;;;;10555558;28;20204;-70
2021/04/29 02:12:55;;;;;;;36.23;23.87;;;;;9.00;99734.00;;;;10521799;28;20223;-71
2021/04/29 02:18:02;;;;;;;30.97;22.60;;;;;8.90;99730.00;;;;10504443;28;20227;-69
2021/04/29 02:23:10;;;;;;;28.23;21.90;;;;;8.80;99737.00;;;;10504162;28;20248;-70
2021/04/29 02:28:17;;;;;;;31.50;22.43;;;;;8.70;99738.00;;;;10504744;28;20215;-70
2021/04/29 02:33:19;;;;;;;30.70;22.57;;;;;8.50;99746.00;;;;10537197;28;20204;-70
2021/04/29 02:38:21;;;;;;;31.67;23.63;;;;;8.40;99736.00;;;;10520264;28;20192;-70
2021/04/29 02:43:23;;;;;;;33.33;23.03;;;;;8.30;99751.00;;;;10503339;28;20208;-71
2021/04/29 02:48:26;;;;;;;36.27;26.20;;;;;8.20;99756.00;;;;10537991;28;20227;-71
2021/04/29 02:53:27;;;;;;;36.53;26.20;;;;;8.10;99768.00;;;;10504116;28;20216;-70
2021/04/29 02:58:49;;;;;;;35.70;25.37;;;;;8.00;99758.00;;;;10564010;28;20543;-70
2021/04/29 03:03:50;;;;;;;37.80;27.00;;;;;8.00;99765.00;;;;10545036;28;20208;-71
2021/04/29 03:08:51;;;;;;;39.17;25.80;;;;;7.90;99764.00;;;;10530620;28;20253;-71
2021/04/29 03:13:52;;;;;;;38.00;28.17;;;;;7.80;99766.00;;;;10520824;28;20256;-70
2021/04/29 03:18:54;;;;;;;38.13;29.50;;;;;7.80;99775.00;;;;10502817;28;20195;-70
2021/04/29 03:23:56;;;;;;;36.47;29.03;;;;;7.90;99783.00;;;;10503550;28;20223;-70
2021/04/29 03:28:57;;;;;;;42.30;29.40;;;;;8.10;99794.00;;;;10519795;28;20675;-71
2021/04/29 03:33:58;;;;;;;38.30;27.17;;;;;8.20;99788.00;;;;10536938;28;20238;-71
2021/04/29 03:39:00;;;;;;;37.00;28.10;;;;;8.30;99792.00;;;;10537124;28;20221;-70
2021/04/29 03:44:02;;;;;;;42.47;28.57;;;;;8.40;99791.00;;;;10502271;28;20201;-71
2021/04/29 03:49:03;;;;;;;36.60;26.63;;;;;8.40;99795.00;;;;10493428;28;20246;-70
2021/04/29 03:54:05;;;;;;;37.00;24.37;;;;;8.40;99804.00;;;;10515844;28;20699;-70
2021/04/29 03:59:06;;;;;;;31.50;21.10;;;;;8.40;99812.00;;;;10569570;28;20199;-71
2021/04/29 04:04:07;;;;;;;35.50;27.03;;;;;8.50;99829.00;;;;10518933;28;20601;-70
2021/04/29 04:09:09;;;;;;;41.43;27.20;;;;;8.60;99834.00;;;;10526349;28;20560;-70
2021/04/29 04:14:10;;;;;;;36.67;27.80;;;;;8.60;99836.00;;;;10544854;28;20227;-71
2021/04/29 04:19:12;;;;;;;33.50;24.03;;;;;8.60;99827.00;;;;10509347;28;20280;-70
2021/04/29 04:24:13;;;;;;;36.47;26.37;;;;;8.50;99804.00;;;;10525676;28;20536;-70
2021/04/29 04:29:15;;;;;;;35.13;25.20;;;;;8.30;99825.00;;;;10542494;28;20576;-70
2021/04/29 04:34:16;;;;;;;38.87;27.70;;;;;8.30;99828.00;;;;10524982;28;20189;-70
2021/04/29 04:39:17;;;;;;;34.40;24.83;;;;;8.30;99819.00;;;;10524749;28;20196;-70
2021/04/29 04:44:19;;;;;;;33.77;26.67;;;;;8.30;99839.00;;;;10542039;28;20245;-70
2021/04/29 04:49:20;;;;;;;39.03;27.17;;;;;8.40;99840.00;;;;10525073;28;20276;-70
2021/04/29 04:54:22;;;;;;;34.43;24.27;;;;;8.40;99840.00;;;;10524965;28;20283;-70
2021/04/29 04:59:24;;;;;;;37.57;26.67;;;;;8.50;99848.00;;;;10542648;28;20547;-71
2021/04/29 05:04:27;;;;;;;36.87;25.13;;;;;8.70;99852.00;;;;10507180;28;20209;-71
2021/04/29 05:09:30;;;;;;;27.43;22.33;;;;;8.70;99854.00;;;;10524868;28;20193;-70
2021/04/29 05:14:31;;;;;;;34.57;24.57;;;;;8.80;99851.00;;;;10542289;28;20570;-70
2021/04/29 05:19:32;;;;;;;28.70;21.80;;;;;8.90;99862.00;;;;10542243;28;20192;-70
2021/04/29 05:24:33;;;;;;;30.63;22.47;;;;;8.90;99869.00;;;;10524425;28;20304;-70
2021/04/29 05:29:36;;;;;;;27.73;19.63;;;;;8.80;99871.00;;;;10507049;28;20525;-71
2021/04/29 05:34:38;;;;;;;29.60;19.90;;;;;8.90;99867.00;;;;10520619;28;20691;-70
2021/04/29 05:39:39;;;;;;;23.90;16.13;;;;;9.00;99882.00;;;;10523676;28;20192;-71
2021/04/29 05:44:41;;;;;;;31.90;22.93;;;;;9.10;99876.00;;;;10506092;28;20683;-70
2021/04/29 05:49:43;;;;;;;32.53;24.17;;;;;9.10;99873.00;;;;10523221;28;20188;-71
2021/04/29 05:54:44;;;;;;;37.03;27.10;;;;;9.00;99899.00;;;;10522397;28;20227;-71
2021/04/29 05:59:45;;;;;;;37.30;27.50;;;;;8.90;99895.00;;;;10522867;28;20212;-71
2021/04/29 06:04:46;;;;;;;38.43;28.80;;;;;8.80;99902.00;;;;10522223;28;20663;-72
2021/04/29 06:09:48;;;;;;;37.13;26.63;;;;;8.90;99904.00;;;;10521818;28;20242;-71
2021/04/29 06:14:52;;;;;;;35.80;26.93;;;;;8.90;99904.00;;;;10523590;28;20181;-71
2021/04/29 06:19:54;;;;;;;34.83;27.43;;;;;9.10;99915.00;;;;10505526;28;20203;-71
2021/04/29 06:24:55;;;;;;;34.50;26.83;;;;;9.50;99914.00;;;;10488777;28;20246;-70
2021/04/29 06:29:56;;;;;;;37.53;26.57;;;;;9.90;99921.00;;;;10537943;28;20197;-70
2021/04/29 06:34:58;;;;;;;29.43;25.80;;;;;9.80;99924.00;;;;10480125;28;20223;-70
2021/04/29 06:40:00;;;;;;;33.00;24.03;;;;;9.90;99928.00;;;;10532570;28;20227;-70
2021/04/29 06:45:02;;;;;;;29.20;21.63;;;;;10.00;99934.00;;;;10485422;28;20208;-71
2021/04/29 06:50:05;;;;;;;27.50;21.73;;;;;10.20;99941.00;;;;10461994;28;20204;-70
2021/04/29 06:55:07;;;;;;;21.30;16.13;;;;;9.90;99937.00;;;;10511035;28;20224;-71
2021/04/29 07:00:09;;;;;;;25.33;17.10;;;;;9.80;99940.00;;;;10520905;28;20185;-70
2021/04/29 07:05:10;;;;;;;18.03;13.63;;;;;10.00;99939.00;;;;10519660;28;20229;-71
2021/04/29 07:10:12;;;;;;;20.07;14.10;;;;;10.60;99964.00;;;;10512449;28;20192;-71
2021/04/29 07:15:33;;;;;;;16.00;11.63;;;;;10.60;99969.00;;;;10478666;28;20178;-70
2021/04/29 07:20:36;;;;;;;13.23;10.27;;;;;10.40;99981.00;;;;10501218;28;20242;-71
2021/04/29 07:25:37;;;;;;;13.30;9.43;;;;;10.00;99993.00;;;;10488658;28;20208;-71
2021/04/29 07:30:40;;;;;;;14.97;8.43;;;;;9.80;99991.00;;;;10544747;28;20689;-71
2021/04/29 07:35:41;;;;;;;14.20;9.83;;;;;9.60;100003.00;;;;10546127;28;20192;-71
2021/04/29 07:40:42;;;;;;;19.03;9.70;;;;;9.50;99993.00;;;;10545158;28;20224;-71
2021/04/29 07:45:44;;;;;;;17.57;10.97;;;;;9.10;100010.00;;;;10511437;28;20212;-71
2021/04/29 07:50:45;;;;;;;16.23;9.23;;;;;8.80;100015.00;;;;10510565;28;20258;-71
2021/04/29 07:55:47;;;;;;;15.97;10.13;;;;;9.20;100020.00;;;;10546955;28;20916;-70
2021/04/29 08:00:48;;;;;;;12.93;8.57;;;;;9.00;100022.00;;;;10557025;28;20217;-71
2021/04/29 08:05:50;;;;;;;10.90;7.33;;;;;8.90;100028.00;;;;10501740;28;20260;-71
2021/04/29 08:10:51;;;;;;;12.07;8.37;;;;;8.90;100043.00;;;;10471988;28;20250;-71
2021/04/29 08:15:52;;;;;;;11.17;7.77;;;;;8.80;100053.00;;;;10527056;28;20180;-71
2021/04/29 08:20:54;;;;;;;15.03;8.33;;;;;8.70;100066.00;;;;10501834;28;20197;-71
2021/04/29 08:25:55;;;;;;;12.50;6.97;;;;;8.60;100069.00;;;;10516517;28;20771;-71
2021/04/29 08:30:56;;;;;;;15.57;9.53;;;;;8.50;100089.00;;;;10491833;28;20667;-72
2021/04/29 08:35:58;;;;;;;10.83;8.27;;;;;8.30;100098.00;;;;10526277;28;20193;-71
2021/04/29 08:40:59;;;;;;;10.47;7.57;;;;;8.40;100108.00;;;;10525268;28;20643;-72
2021/04/29 08:46:01;;;;;;;10.30;6.00;;;;;8.40;100114.00;;;;10474706;28;20225;-72
2021/04/29 08:51:03;;;;;;;7.47;5.83;;;;;8.40;100125.00;;;;10483328;28;20194;-72
2021/04/29 08:56:04;;;;;;;8.53;5.93;;;;;8.60;100138.00;;;;10502413;28;20193;-72
2021/04/29 09:01:08;;;;;;;6.37;4.83;;;;;8.20;100148.00;;;;10508475;28;20258;-71
2021/04/29 09:06:10;;;;;;;7.77;5.10;;;;;8.40;100159.00;;;;10524211;28;20227;-72
2021/04/29 09:11:15;;;;;;;5.20;4.70;;;;;8.60;100162.00;;;;10524433;28;20239;-72
2021/04/29 09:16:16;;;;;;;5.17;4.13;;;;;9.10;100177.00;;;;10507626;28;20196;-73
2021/04/29 09:21:17;;;;;;;5.27;4.30;;;;;8.50;100182.00;;;;10507419;28;20211;-72
2021/04/29 09:26:20;;;;;;;6.53;4.13;;;;;8.20;100180.00;;;;10506805;28;20634;-72
2021/04/29 09:31:37;;;;;;;7.30;4.77;;;;;7.60;100190.00;;;;10523538;28;20192;-72
2021/04/29 09:36:43;;;;;;;6.40;4.70;;;;;7.40;100193.00;;;;10506325;28;20193;-72
2021/04/29 09:41:49;;;;;;;7.50;5.33;;;;;8.30;100200.00;;;;10522961;28;20212;-72
2021/04/29 09:46:51;;;;;;;8.40;6.00;;;;;8.30;100208.00;;;;10480948;28;20267;-69
2021/04/29 09:51:54;;;;;;;7.90;5.80;;;;;7.60;100209.00;;;;10478696;28;20209;-72
2021/04/29 09:56:59;;;;;;;8.63;6.67;;;;;7.40;100229.00;;;;10497270;28;20262;-72
2021/04/29 10:02:02;;;;;;;6.23;5.27;;;;;7.60;100229.00;;;;10500653;28;20200;-72
2021/04/29 10:07:03;;;;;;;8.67;6.80;;;;;7.70;100245.00;;;;10507395;28;20212;-72
2021/04/29 10:12:09;;;;;;;4.67;4.03;;;;;7.60;100252.00;;;;10541894;27;20197;-72
2021/04/29 10:17:18;;;;;;;6.50;5.13;;;;;7.50;100253.00;;;;10474084;28;20676;-72
2021/04/29 10:22:23;;;;;;;6.60;5.23;;;;;7.80;100276.00;;;;10512413;28;20221;-72
2021/04/29 10:27:29;;;;;;;9.43;4.77;;;;;8.20;100292.00;;;;10513960;28;20208;-72
2021/04/29 10:32:35;;;;;;;7.07;4.57;;;;;8.50;100286.00;;;;10523841;28;20656;-72
2021/04/29 10:37:37;;;;;;;4.63;4.23;;;;;8.60;100284.00;;;;10491898;28;20588;-72
2021/04/29 10:42:45;;;;;;;6.23;4.83;;;;;8.80;100287.00;;;;10478270;28;20724;-72
2021/04/29 10:47:47;;;;;;;5.20;4.67;;;;;11.00;100293.00;;;;10495375;28;20229;-72
2021/04/29 10:52:56;;;;;;;7.97;5.73;;;;;10.50;100303.00;;;;10478435;28;20467;-72
2021/04/29 10:58:00;;;;;;;7.33;5.93;;;;;9.60;100331.00;;;;10520654;28;20193;-72
2021/04/29 11:03:06;;;;;;;6.37;5.77;;;;;9.00;100333.00;;;;10532111;28;20586;-72
2021/04/29 11:08:09;;;;;;;7.83;6.60;;;;;8.70;100334.00;;;;10503717;28;20244;-72
2021/04/29 11:13:20;;;;;;;8.93;5.40;;;;;8.30;100339.00;;;;10504781;28;20621;-72
2021/04/29 11:18:22;;;;;;;5.80;4.17;;;;;8.00;100347.00;;;;10478138;28;20254;-72
2021/04/29 11:23:41;;;;;;;8.27;4.93;;;;;8.00;100356.00;;;;10543091;28;20327;-71
2021/04/29 11:28:55;;;;;;;8.43;6.80;;;;;8.20;100367.00;;;;10519238;28;20238;-72
2021/04/29 11:33:57;;;;;;;6.90;6.20;;;;;8.40;100370.00;;;;10553614;28;20590;-72
2021/04/29 11:39:04;;;;;;;13.17;6.13;;;;;8.50;100364.00;;;;10519557;28;20193;-72
2021/04/29 11:44:07;;;;;;;9.67;6.37;;;;;9.10;100385.00;;;;10518973;28;20205;-71
2021/04/29 11:49:09;;;;;;;8.90;5.10;;;;;10.30;100374.00;;;;10518918;28;20579;-72
2021/04/29 11:54:11;;;;;;;10.70;7.00;;;;;9.40;100398.00;;;;10522556;28;20223;-72
2021/04/29 11:59:14;;;;;;;11.33;6.90;;;;;8.80;100412.00;;;;10516745;28;20246;-72
2021/04/29 12:04:22;;;;;;;13.57;7.60;;;;;8.70;100411.00;;;;10518834;28;20254;-72
2021/04/29 12:09:26;;;;;;;11.37;7.40;;;;;8.70;100431.00;;;;10543930;28;20193;-72
2021/04/29 12:14:31;;;;;;;9.63;7.67;;;;;8.80;100417.00;;;;10523234;28;20777;-72
2021/04/29 12:19:33;;;;;;;12.33;7.13;;;;;9.30;100433.00;;;;10509482;28;20193;-72
2021/04/29 12:24:43;;;;;;;11.20;7.43;;;;;8.80;100440.00;;;;10525923;28;20216;-72
2021/04/29 12:30:01;;;;;;;12.53;7.67;;;;;9.00;100458.00;;;;10509614;28;20192;-72
2021/04/29 12:35:05;;;;;;;9.40;6.40;;;;;9.10;100460.00;;;;10525517;28;20193;-72
2021/04/29 12:40:07;;;;;;;10.40;7.17;;;;;9.40;100457.00;;;;10525774;28;20290;-72
2021/04/29 12:45:09;;;;;;;11.63;6.80;;;;;9.60;100470.00;;;;10508008;28;20295;-72
2021/04/29 12:50:12;;;;;;;14.80;7.73;;;;;9.00;100479.00;;;;10525560;28;20204;-72
2021/04/29 12:55:15;;;;;;;12.93;7.17;;;;;8.80;100483.00;;;;10507543;28;20199;-72
2021/04/29 13:00:17;;;;;;;10.60;7.23;;;;;9.00;100485.00;;;;10550557;28;20421;-72
2021/04/29 13:05:23;;;;;;;10.23;7.53;;;;;9.30;100486.00;;;;10550300;28;20239;-72
2021/04/29 13:10:24;;;;;;;9.40;7.73;;;;;9.30;100494.00;;;;10563023;28;20193;-72
2021/04/29 13:15:29;;;;;;;10.77;7.63;;;;;9.40;100493.00;;;;10524943;28;20197;-72
2021/04/29 13:20:32;;;;;;;13.63;7.50;;;;;9.60;100485.00;;;;10485525;28;20215;-72
2021/04/29 13:25:35;;;;;;;8.60;7.23;;;;;10.00;100494.00;;;;10517038;28;20544;-72
2021/04/29 13:30:36;;;;;;;12.20;7.83;;;;;9.90;100501.00;;;;10506799;28;20187;-72
2021/04/29 13:35:38;;;;;;;12.87;7.10;;;;;9.50;100511.00;;;;10541264;28;20181;-72
2021/04/29 13:40:39;;;;;;;11.23;6.83;;;;;9.50;100505.00;;;;10523802;28;20181;-72
2021/04/29 13:45:41;;;;;;;12.00;7.53;;;;;10.00;100497.00;;;;10520376;28;20663;-72
2021/04/29 13:50:45;;;;;;;11.57;7.63;;;;;10.80;100494.00;;;;10500104;28;20181;-72
2021/04/29 13:55:46;;;;;;;10.60;6.70;;;;;11.50;100489.00;;;;10511603;28;20188;-72
2021/04/29 14:00:48;;;;;;;9.33;6.63;;;;;11.80;100465.00;;;;10486683;28;20208;-72
2021/04/29 14:05:50;;;;;;;9.47;6.60;;;;;11.50;100492.00;;;;10496547;28;20237;-72
2021/04/29 14:10:51;;;;;;;12.70;7.47;;;;;11.50;100497.00;;;;10490114;28;20562;-72
2021/04/29 14:15:52;;;;;;;16.27;7.50;;;;;11.30;100497.00;;;;10536137;28;20184;-72
2021/04/29 14:20:56;;;;;;;12.03;7.20;;;;;10.90;100497.00;;;;10538521;28;20221;-71
2021/04/29 14:25:57;;;;;;;8.67;6.40;;;;;10.70;100501.00;;;;10530093;28;20219;-72
2021/04/29 14:31:00;;;;;;;11.27;7.23;;;;;11.30;100502.00;;;;10510231;28;20197;-72
2021/04/29 14:36:04;;;;;;;9.80;7.60;;;;;11.60;100508.00;;;;10513268;28;20197;-72
2021/04/29 14:41:06;;;;;;;10.70;7.93;;;;;11.30;100502.00;;;;10482344;28;20216;-72
2021/04/29 14:46:07;;;;;;;10.67;7.57;;;;;11.30;100492.00;;;;10516749;28;20221;-74
2021/04/29 14:51:11;;;;;;;8.50;6.63;;;;;11.50;100500.00;;;;10483529;28;20254;-70
2021/04/29 14:56:12;;;;;;;8.50;6.77;;;;;11.70;100495.00;;;;10499733;28;20208;-70
2021/04/29 15:01:13;;;;;;;8.10;6.70;;;;;11.40;100493.00;;;;10497746;28;20338;-71
2021/04/29 15:06:16;;;;;;;7.23;6.00;;;;;11.20;100495.00;;;;10533531;28;20947;-71
2021/04/29 15:11:18;;;;;;;8.53;6.13;;;;;11.30;100495.00;;;;10501302;28;20224;-72
2021/04/29 15:16:34;;;;;;;11.50;6.57;;;;;11.70;100505.00;;;;10532157;28;20272;-72
2021/04/29 15:21:37;;;;;;;8.33;6.23;;;;;11.70;100510.00;;;;10494797;28;20213;-72
2021/04/29 15:26:39;;;;;;;8.57;6.07;;;;;12.00;100500.00;;;;10515183;28;20282;-70
2021/04/29 15:31:40;;;;;;;8.33;6.17;;;;;14.70;100505.00;;;;10479498;28;20243;-72
2021/04/29 15:36:43;;;;;;;8.00;6.63;;;;;16.00;100493.00;;;;10523055;28;20189;-73
2021/04/29 15:41:44;;;;;;;10.87;5.83;;;;;21.50;100491.00;;;;10527861;28;20277;-70
2021/04/29 15:46:45;;;;;;;10.77;5.15;;;;;21.30;100496.00;;;;10511006;28;20286;-70
2021/04/29 15:51:46;;;;;;;6.43;5.07;;;;;15.00;100513.00;;;;10529081;28;20889;-70
2021/04/29 15:56:49;;;;;;;5.40;4.90;;;;;12.50;100540.00;;;;10471589;28;20185;-70
2021/04/29 16:01:51;;;;;;;7.00;4.43;;;;;11.60;100540.00;;;;10519859;28;20209;-72
2021/04/29 16:06:52;;;;;;;7.77;4.60;;;;;12.00;100533.00;;;;10509878;28;20294;-70
2021/04/29 16:11:54;;;;;;;7.07;4.47;;;;;12.20;100541.00;;;;10526961;28;20249;-70
2021/04/29 16:16:55;;;;;;;5.73;3.97;;;;;12.30;100531.00;;;;10505209;28;20231;-70
2021/04/29 16:21:57;;;;;;;6.73;4.60;;;;;12.40;100542.00;;;;10533019;28;20193;-70
2021/04/29 16:27:08;;;;;;;9.27;3.93;;;;;12.50;100544.00;;;;10503509;28;20675;-70
2021/04/29 16:32:10;;;;;;;7.80;4.27;;;;;12.70;100554.00;;;;10487750;28;20956;-70
2021/04/29 16:37:12;;;;;;;5.90;4.07;;;;;13.10;100562.00;;;;10487358;28;20521;-70
2021/04/29 16:42:14;;;;;;;9.23;4.30;;;;;13.20;100553.00;;;;10507215;28;20197;-70
2021/04/29 16:47:16;;;;;;;6.40;3.40;;;;;12.80;100549.00;;;;10507954;28;20220;-70
2021/04/29 16:52:18;;;;;;;5.53;3.60;;;;;12.60;100556.00;;;;10506090;28;20197;-70
2021/04/29 16:57:19;;;;;;;7.53;3.60;;;;;13.00;100563.00;;;;10525630;28;20185;-70
2021/04/29 17:02:21;;;;;;;6.83;3.80;;;;;12.80;100550.00;;;;10508001;28;20261;-70
2021/04/29 17:07:22;;;;;;;9.27;4.20;;;;;12.00;100563.00;;;;10489527;28;20225;-71
2021/04/29 17:12:24;;;;;;;5.17;3.70;;;;;11.50;100552.00;;;;10502484;28;20193;-70
2021/04/29 17:17:25;;;;;;;5.53;3.13;;;;;11.20;100559.00;;;;10481056;28;20186;-70
2021/04/29 17:22:34;;;;;;;4.00;3.40;;;;;11.10;100556.00;;;;10491302;28;20196;-70
2021/04/29 17:27:35;;;;;;;5.30;4.13;;;;;10.90;100570.00;;;;10523945;28;20571;-70
2021/04/29 17:32:37;;;;;;;5.63;3.43;;;;;10.70;100577.00;;;;10518360;28;20267;-71
2021/04/29 17:37:41;;;;;;;5.83;3.50;;;;;10.50;100574.00;;;;10540441;28;20193;-71
2021/04/29 17:42:44;;;;;;;6.37;3.67;;;;;10.40;100573.00;;;;10529512;28;20206;-71
2021/04/29 17:47:45;;;;;;;12.67;3.80;;;;;10.20;100589.00;;;;10497854;28;20249;-71
2021/04/29 17:52:50;;;;;;;6.00;3.93;;;;;10.10;100582.00;;;;10550112;28;20197;-71
2021/04/29 17:57:51;;;;;;;7.13;3.33;;;;;9.90;100586.00;;;;10522481;28;20197;-70
2021/04/29 18:02:53;;;;;;;6.13;3.23;;;;;9.80;100575.00;;;;10499077;28;20279;-70
2021/04/29 18:07:55;;;;;;;6.17;2.90;;;;;9.70;100596.00;;;;10465512;28;20697;-70
2021/04/29 18:12:56;;;;;;;5.37;3.50;;;;;9.50;100600.00;;;;10505212;28;20193;-70
2021/04/29 18:17:58;;;;;;;11.20;3.00;;;;;9.40;100604.00;;;;10522474;28;20189;-71
2021/04/29 18:22:59;;;;;;;6.23;3.60;;;;;9.20;100611.00;;;;10522573;28;20218;-70
2021/04/29 18:28:01;;;;;;;7.20;3.43;;;;;9.10;100621.00;;;;10540503;28;20236;-71
2021/04/29 18:33:03;;;;;;;6.97;3.63;;;;;9.20;100629.00;;;;10537648;28;20192;-71
2021/04/29 18:38:09;;;;;;;7.73;4.07;;;;;8.80;100631.00;;;;10505883;28;20231;-71
2021/04/29 18:43:11;;;;;;;6.27;3.87;;;;;8.50;100628.00;;;;10488550;28;20197;-70
2021/04/29 18:48:12;;;;;;;8.90;3.70;;;;;8.30;100637.00;;;;10504123;28;20208;-71
2021/04/29 18:53:16;;;;;;;4.73;3.27;;;;;8.00;100650.00;;;;10504425;28;20218;-71
2021/04/29 18:58:17;;;;;;;5.53;3.57;;;;;7.80;100655.00;;;;10487635;28;20188;-72
2021/04/29 19:03:29;;;;;;;7.90;3.77;;;;;7.60;100654.00;;;;10539337;28;20207;-71
2021/04/29 19:08:31;;;;;;;6.63;3.60;;;;;7.50;100673.00;;;;10554795;28;20220;-72
2021/04/29 19:13:33;;;;;;;7.13;3.90;;;;;7.30;100678.00;;;;10520494;28;20288;-72
2021/04/29 19:18:34;;;;;;;8.03;4.27;;;;;7.10;100678.00;;;;10529042;28;20189;-72
2021/04/29 19:23:36;;;;;;;6.90;3.80;;;;;6.90;100692.00;;;;10513658;28;20197;-72
2021/04/29 19:28:37;;;;;;;8.57;4.30;;;;;6.80;100695.00;;;;10537491;28;20215;-72
2021/04/29 19:33:38;;;;;;;6.13;4.00;;;;;6.70;100700.00;;;;10537257;28;20315;-72
2021/04/29 19:38:41;;;;;;;7.03;4.50;;;;;6.50;100709.00;;;;10553838;28;20280;-72
2021/04/29 19:43:42;;;;;;;7.50;3.90;;;;;6.40;100707.00;;;;10571139;28;20192;-72
2021/04/29 19:48:44;;;;;;;10.13;4.17;;;;;6.30;100718.00;;;;10570416;28;20258;-72
2021/04/29 19:53:45;;;;;;;10.87;5.23;;;;;6.10;100706.00;;;;10533690;28;20303;-72
2021/04/29 19:58:46;;;;;;;9.37;5.03;;;;;6.00;100715.00;;;;10528072;28;20283;-73
2021/04/29 20:03:48;;;;;;;11.57;5.27;;;;;5.90;100713.00;;;;10462439;28;20216;-72
2021/04/29 20:08:50;;;;;;;9.63;5.63;;;;;5.80;100713.00;;;;10508465;28;20209;-72
2021/04/29 20:13:51;;;;;;;9.90;5.00;;;;;5.70;100725.00;;;;10527422;28;20204;-72
2021/04/29 20:18:53;;;;;;;13.93;7.30;;;;;5.50;100722.00;;;;10477205;28;20528;-72
2021/04/29 20:23:54;;;;;;;9.13;6.47;;;;;5.30;100729.00;;;;10477198;28;20614;-72
2021/04/29 20:28:56;;;;;;;10.23;6.10;;;;;5.10;100729.00;;;;10525477;28;20786;-72
2021/04/29 20:33:58;;;;;;;22.70;7.40;;;;;5.00;100728.00;;;;10468002;28;20201;-72
2021/04/29 20:39:00;;;;;;;13.40;7.47;;;;;4.90;100732.00;;;;10501011;28;20189;-72
2021/04/29 20:44:03;;;;;;;12.27;7.50;;;;;4.90;100731.00;;;;10499945;28;20201;-72
2021/04/29 20:49:04;;;;;;;14.87;8.23;;;;;4.90;100732.00;;;;10442606;28;20190;-72
2021/04/29 20:54:06;;;;;;;14.97;7.93;;;;;4.90;100735.00;;;;10409631;28;20198;-72
2021/04/29 20:59:09;;;;;;;15.23;8.60;;;;;4.80;100740.00;;;;10446383;28;20582;-72
2021/04/29 21:04:10;;;;;;;10.90;7.00;;;;;4.70;100746.00;;;;10433013;28;20186;-72
2021/04/29 21:09:12;;;;;;;16.33;8.20;;;;;4.60;100750.00;;;;10409369;28;20706;-73
2021/04/29 21:14:13;;;;;;;13.73;7.30;;;;;4.50;100760.00;;;;10425326;28;20823;-72
2021/04/29 21:19:14;;;;;;;13.80;6.93;;;;;4.40;100753.00;;;;10459833;28;20191;-72
2021/04/29 21:24:16;;;;;;;12.17;7.07;;;;;4.40;100770.00;;;;10409201;28;20194;-72
2021/04/29 21:29:17;;;;;;;11.53;7.73;;;;;4.50;100769.00;;;;10425547;28;20249;-71
2021/04/29 21:34:18;;;;;;;10.33;6.70;;;;;4.50;100771.00;;;;10407892;28;20232;-71
2021/04/29 21:39:20;;;;;;;9.60;6.33;;;;;4.30;100772.00;;;;10424093;28;20579;-71
2021/04/29 21:44:21;;;;;;;11.67;6.00;;;;;4.30;100776.00;;;;10427993;28;20197;-70
2021/04/29 21:49:24;;;;;;;9.27;6.23;;;;;4.20;100764.00;;;;10482429;28;20240;-70
2021/04/29 21:54:25;;;;;;;10.00;6.13;;;;;4.20;100766.00;;;;10499050;28;20201;-71
2021/04/29 21:59:27;;;;;;;9.13;5.70;;;;;4.20;100773.00;;;;10465083;28;20205;-71
2021/04/29 22:04:28;;;;;;;16.80;6.10;;;;;4.30;100780.00;;;;10464675;28;20213;-71
2021/04/29 22:09:30;;;;;;;7.10;5.47;;;;;4.20;100785.00;;;;10481819;28;20221;-71
2021/04/29 22:14:31;;;;;;;12.70;5.97;;;;;4.10;100778.00;;;;10480663;28;20243;-71
2021/04/29 22:19:33;;;;;;;6.50;5.10;;;;;4.10;100789.00;;;;10480241;28;20200;-71
2021/04/29 22:24:34;;;;;;;9.97;6.10;;;;;4.10;100788.00;;;;10489953;28;20251;-71
2021/04/29 22:29:35;;;;;;;10.87;5.97;;;;;4.10;100797.00;;;;10522784;28;20238;-71
2021/04/29 22:34:37;;;;;;;7.90;6.33;;;;;4.00;100788.00;;;;10538624;28;20196;-71
2021/04/29 22:39:39;;;;;;;6.50;5.27;;;;;4.00;100791.00;;;;10489005;28;20283;-70
2021/04/29 22:44:40;;;;;;;6.80;5.20;;;;;4.00;100789.00;;;;10538573;28;20212;-71
2021/04/29 22:49:42;;;;;;;8.93;5.67;;;;;4.00;100808.00;;;;10447300;28;20580;-71
2021/04/29 22:54:43;;;;;;;9.50;5.53;;;;;3.90;100815.00;;;;10446736;28;20197;-71
2021/04/29 22:59:45;;;;;;;7.10;5.63;;;;;3.90;100802.00;;;;10479416;28;20201;-71
2021/04/29 23:04:46;;;;;;;11.30;6.23;;;;;3.90;100812.00;;;;10479580;28;20271;-71
2021/04/29 23:09:47;;;;;;;10.20;6.10;;;;;3.80;100809.00;;;;10462857;28;20189;-70
2021/04/29 23:14:49;;;;;;;11.90;6.57;;;;;3.70;100800.00;;;;10479828;28;20235;-71
2021/04/29 23:19:50;;;;;;;9.07;6.17;;;;;3.70;100805.00;;;;10437776;28;20198;-71
2021/04/29 23:24:51;;;;;;;9.30;5.97;;;;;3.70;100797.00;;;;10482791;28;20244;-71
2021/04/29 23:29:53;;;;;;;11.87;7.17;;;;;3.70;100796.00;;;;10479637;28;20239;-71
2021/04/29 23:34:54;;;;;;;12.53;6.47;;;;;3.80;100796.00;;;;10495184;28;20193;-71
2021/04/29 23:39:55;;;;;;;11.60;6.80;;;;;3.70;100800.00;;;;10478706;28;20537;-72
2021/04/29 23:44:57;;;;;;;10.83;6.67;;;;;3.70;100790.00;;;;10478104;28;20276;-71
2021/04/29 23:49:58;;;;;;;11.87;6.70;;;;;3.60;100799.00;;;;10478894;28;20194;-71
2021/04/29 23:54:59;;;;;;;12.20;7.23;;;;;3.60;100785.00;;;;10496357;28;20230;-71
